sensor_id;sensor_type;location;lat;lon;timestamp;P1;durP1;ratioP1;P2;durP2;ratioP2
11735;SDS011;5924;51.398;7.088;2024-03-02T00:02:05;1.60;;;1.50;;
11735;SDS011;5924;51.398;7.088;2024-03-02T00:04:32;1.83;;;1.40;;
11735;SDS011;5924;51.398;7.088;2024-03-02T00:06:57;4.33;;;1.40;;
11735;SDS011;5924;51.398;7.088;2024-03-02T00:09:23;1.67;;;1.40;;
11735;SDS011;5924;51.398;7.088;2024-03-02T00:11:50;1.70;;;1.60;;
11735;SDS011;5924;51.398;7.088;2024-03-02T00:14:16;2.30;;;1.70;;
11735;SDS011;5924;51.398;7.088;2024-03-02T00:16:42;1.27;;;1.27;;
11735;SDS011;5924;51.398;7.088;2024-03-02T00:19:08;1.57;;;1.50;;
11735;SDS011;5924;51.398;7.088;2024-03-02T00:21:34;1.33;;;1.23;;
11735;SDS011;5924;51.398;7.088;2024-03-02T00:24:01;1.57;;;1.57;;
11735;SDS011;5924;51.398;7.088;2024-03-02T00:26:46;1.23;;;1.23;;
11735;SDS011;5924;51.398;7.088;2024-03-02T00:29:15;1.17;;;1.17;;
11735;SDS011;5924;51.398;7.088;2024-03-02T00:31:43;1.57;;;1.23;;
11735;SDS011;5924;51.398;7.088;2024-03-02T00:34:09;1.50;;;1.40;;
11735;SDS011;5924;51.398;7.088;2024-03-02T00:36:37;1.60;;;1.50;;
11735;SDS011;5924;51.398;7.088;2024-03-02T00:39:03;1.40;;;1.40;;
11735;SDS011;5924;51.398;7.088;2024-03-02T00:41:32;1.47;;;1.37;;
11735;SDS011;5924;51.398;7.088;2024-03-02T00:44:17;1.37;;;1.33;;
11735;SDS011;5924;51.398;7.088;2024-03-02T00:46:49;1.30;;;1.20;;
11735;SDS011;5924;51.398;7.088;2024-03-02T00:49:22;1.53;;;1.33;;
11735;SDS011;5924;51.398;7.088;2024-03-02T00:51:50;1.77;;;1.10;;
11735;SDS011;5924;51.398;7.088;2024-03-02T00:54:24;1.27;;;1.10;;
11735;SDS011;5924;51.398;7.088;2024-03-02T00:56:54;1.43;;;1.43;;
11735;SDS011;5924;51.398;7.088;2024-03-02T00:59:21;1.20;;;1.20;;
11735;SDS011;5924;51.398;7.088;2024-03-02T01:01:48;0.70;;;0.70;;
11735;SDS011;5924;51.398;7.088;2024-03-02T01:04:14;0.90;;;0.90;;
11735;SDS011;5924;51.398;7.088;2024-03-02T01:06:40;1.00;;;1.00;;
11735;SDS011;5924;51.398;7.088;2024-03-02T01:09:07;1.23;;;1.13;;
11735;SDS011;5924;51.398;7.088;2024-03-02T01:11:33;2.00;;;0.93;;
11735;SDS011;5924;51.398;7.088;2024-03-02T01:13:58;1.90;;;1.03;;
11735;SDS011;5924;51.398;7.088;2024-03-02T01:16:24;3.13;;;1.60;;
11735;SDS011;5924;51.398;7.088;2024-03-02T01:18:50;5.43;;;1.63;;
11735;SDS011;5924;51.398;7.088;2024-03-02T01:21:15;1.90;;;1.23;;
11735;SDS011;5924;51.398;7.088;2024-03-02T01:23:42;1.30;;;1.30;;
11735;SDS011;5924;51.398;7.088;2024-03-02T01:26:08;1.00;;;1.00;;
11735;SDS011;5924;51.398;7.088;2024-03-02T01:28:33;0.93;;;0.93;;
11735;SDS011;5924;51.398;7.088;2024-03-02T01:30:59;1.10;;;1.10;;
11735;SDS011;5924;51.398;7.088;2024-03-02T01:33:27;1.63;;;1.10;;
11735;SDS011;5924;51.398;7.088;2024-03-02T01:36:01;1.20;;;1.20;;
11735;SDS011;5924;51.398;7.088;2024-03-02T01:38:26;1.20;;;1.03;;
11735;SDS011;5924;51.398;7.088;2024-03-02T01:40:53;2.50;;;1.10;;
11735;SDS011;5924;51.398;7.088;2024-03-02T01:43:21;2.03;;;1.10;;
11735;SDS011;5924;51.398;7.088;2024-03-02T01:45:47;0.70;;;0.70;;
11735;SDS011;5924;51.398;7.088;2024-03-02T01:48:13;2.50;;;1.00;;
11735;SDS011;5924;51.398;7.088;2024-03-02T01:50:38;1.30;;;1.30;;
11735;SDS011;5924;51.398;7.088;2024-03-02T01:53:04;1.10;;;1.10;;
11735;SDS011;5924;51.398;7.088;2024-03-02T01:55:30;0.80;;;0.80;;
11735;SDS011;5924;51.398;7.088;2024-03-02T01:57:56;2.20;;;1.00;;
11735;SDS011;5924;51.398;7.088;2024-03-02T02:00:22;1.70;;;0.70;;
11735;SDS011;5924;51.398;7.088;2024-03-02T02:02:51;0.70;;;0.70;;
11735;SDS011;5924;51.398;7.088;2024-03-02T02:05:17;1.00;;;1.00;;
11735;SDS011;5924;51.398;7.088;2024-03-02T02:07:43;0.77;;;0.77;;
11735;SDS011;5924;51.398;7.088;2024-03-02T02:10:09;1.03;;;1.03;;
11735;SDS011;5924;51.398;7.088;2024-03-02T02:12:36;0.97;;;0.97;;
11735;SDS011;5924;51.398;7.088;2024-03-02T02:15:02;1.10;;;1.10;;
11735;SDS011;5924;51.398;7.088;2024-03-02T02:17:28;4.17;;;0.80;;
11735;SDS011;5924;51.398;7.088;2024-03-02T02:19:54;0.80;;;0.80;;
11735;SDS011;5924;51.398;7.088;2024-03-02T02:22:20;2.00;;;1.07;;
11735;SDS011;5924;51.398;7.088;2024-03-02T02:24:45;1.30;;;1.20;;
11735;SDS011;5924;51.398;7.088;2024-03-02T02:27:11;0.97;;;0.97;;
11735;SDS011;5924;51.398;7.088;2024-03-02T02:29:40;1.50;;;1.40;;
11735;SDS011;5924;51.398;7.088;2024-03-02T02:32:06;4.03;;;1.83;;
11735;SDS011;5924;51.398;7.088;2024-03-02T02:34:32;2.20;;;1.20;;
11735;SDS011;5924;51.398;7.088;2024-03-02T02:36:58;1.53;;;0.93;;
11735;SDS011;5924;51.398;7.088;2024-03-02T02:39:24;1.50;;;0.90;;
11735;SDS011;5924;51.398;7.088;2024-03-02T02:41:50;1.00;;;1.00;;
11735;SDS011;5924;51.398;7.088;2024-03-02T02:44:16;0.97;;;0.80;;
11735;SDS011;5924;51.398;7.088;2024-03-02T02:46:41;1.20;;;1.20;;
11735;SDS011;5924;51.398;7.088;2024-03-02T02:49:07;1.27;;;1.27;;
11735;SDS011;5924;51.398;7.088;2024-03-02T02:51:33;1.10;;;1.10;;
11735;SDS011;5924;51.398;7.088;2024-03-02T02:53:58;4.10;;;1.20;;
11735;SDS011;5924;51.398;7.088;2024-03-02T02:56:24;1.53;;;0.90;;
11735;SDS011;5924;51.398;7.088;2024-03-02T02:58:50;0.80;;;0.80;;
11735;SDS011;5924;51.398;7.088;2024-03-02T03:01:16;1.37;;;0.90;;
11735;SDS011;5924;51.398;7.088;2024-03-02T03:03:44;0.90;;;0.90;;
11735;SDS011;5924;51.398;7.088;2024-03-02T03:06:10;1.20;;;1.10;;
11735;SDS011;5924;51.398;7.088;2024-03-02T03:08:36;1.00;;;1.00;;
11735;SDS011;5924;51.398;7.088;2024-03-02T03:11:02;0.70;;;0.70;;
11735;SDS011;5924;51.398;7.088;2024-03-02T03:13:28;0.80;;;0.80;;
11735;SDS011;5924;51.398;7.088;2024-03-02T03:15:54;1.20;;;1.20;;
11735;SDS011;5924;51.398;7.088;2024-03-02T03:18:20;1.07;;;1.07;;
11735;SDS011;5924;51.398;7.088;2024-03-02T03:20:46;1.17;;;1.17;;
11735;SDS011;5924;51.398;7.088;2024-03-02T03:23:11;1.90;;;1.00;;
11735;SDS011;5924;51.398;7.088;2024-03-02T03:25:40;0.93;;;0.93;;
11735;SDS011;5924;51.398;7.088;2024-03-02T03:28:07;1.10;;;1.10;;
11735;SDS011;5924;51.398;7.088;2024-03-02T03:30:34;1.53;;;0.93;;
11735;SDS011;5924;51.398;7.088;2024-03-02T03:33:03;1.07;;;1.07;;
11735;SDS011;5924;51.398;7.088;2024-03-02T03:35:33;4.00;;;1.37;;
11735;SDS011;5924;51.398;7.088;2024-03-02T03:37:59;1.80;;;0.60;;
11735;SDS011;5924;51.398;7.088;2024-03-02T03:40:25;0.70;;;0.70;;
11735;SDS011;5924;51.398;7.088;2024-03-02T03:42:51;1.13;;;1.00;;
11735;SDS011;5924;51.398;7.088;2024-03-02T03:45:17;1.10;;;1.10;;
11735;SDS011;5924;51.398;7.088;2024-03-02T03:47:42;0.90;;;0.90;;
11735;SDS011;5924;51.398;7.088;2024-03-02T03:50:08;1.73;;;0.93;;
11735;SDS011;5924;51.398;7.088;2024-03-02T03:52:34;1.10;;;1.10;;
11735;SDS011;5924;51.398;7.088;2024-03-02T03:55:00;1.93;;;1.00;;
11735;SDS011;5924;51.398;7.088;2024-03-02T03:57:26;1.10;;;1.10;;
11735;SDS011;5924;51.398;7.088;2024-03-02T03:59:52;0.80;;;0.80;;
11735;SDS011;5924;51.398;7.088;2024-03-02T04:02:18;2.00;;;1.20;;
11735;SDS011;5924;51.398;7.088;2024-03-02T04:04:44;0.90;;;0.90;;
11735;SDS011;5924;51.398;7.088;2024-03-02T04:07:10;0.80;;;0.80;;
11735;SDS011;5924;51.398;7.088;2024-03-02T04:09:35;1.17;;;1.17;;
11735;SDS011;5924;51.398;7.088;2024-03-02T04:12:01;0.97;;;0.97;;
11735;SDS011;5924;51.398;7.088;2024-03-02T04:14:27;1.30;;;1.20;;
11735;SDS011;5924;51.398;7.088;2024-03-02T04:16:52;0.80;;;0.80;;
11735;SDS011;5924;51.398;7.088;2024-03-02T04:19:18;1.23;;;0.97;;
11735;SDS011;5924;51.398;7.088;2024-03-02T04:21:44;2.20;;;1.10;;
11735;SDS011;5924;51.398;7.088;2024-03-02T04:24:09;1.60;;;0.93;;
11735;SDS011;5924;51.398;7.088;2024-03-02T04:26:35;1.43;;;1.33;;
11735;SDS011;5924;51.398;7.088;2024-03-02T04:29:01;1.60;;;1.60;;
11735;SDS011;5924;51.398;7.088;2024-03-02T04:31:27;1.50;;;1.50;;
11735;SDS011;5924;51.398;7.088;2024-03-02T04:33:52;0.87;;;0.87;;
11735;SDS011;5924;51.398;7.088;2024-03-02T04:36:19;1.00;;;1.00;;
11735;SDS011;5924;51.398;7.088;2024-03-02T04:38:44;2.97;;;0.90;;
11735;SDS011;5924;51.398;7.088;2024-03-02T04:41:10;0.90;;;0.90;;
11735;SDS011;5924;51.398;7.088;2024-03-02T04:43:36;1.30;;;0.90;;
11735;SDS011;5924;51.398;7.088;2024-03-02T04:46:01;1.00;;;1.00;;
11735;SDS011;5924;51.398;7.088;2024-03-02T04:48:27;1.63;;;1.17;;
11735;SDS011;5924;51.398;7.088;2024-03-02T04:50:53;1.30;;;1.27;;
11735;SDS011;5924;51.398;7.088;2024-03-02T04:53:19;1.10;;;1.10;;
11735;SDS011;5924;51.398;7.088;2024-03-02T04:55:44;1.20;;;1.20;;
11735;SDS011;5924;51.398;7.088;2024-03-02T04:58:19;1.50;;;1.00;;
11735;SDS011;5924;51.398;7.088;2024-03-02T05:00:44;2.30;;;1.40;;
11735;SDS011;5924;51.398;7.088;2024-03-02T05:03:11;1.13;;;1.13;;
11735;SDS011;5924;51.398;7.088;2024-03-02T05:05:38;1.23;;;1.23;;
11735;SDS011;5924;51.398;7.088;2024-03-02T05:08:04;3.33;;;1.50;;
11735;SDS011;5924;51.398;7.088;2024-03-02T05:10:29;1.13;;;1.13;;
11735;SDS011;5924;51.398;7.088;2024-03-02T05:12:55;1.00;;;1.00;;
11735;SDS011;5924;51.398;7.088;2024-03-02T05:15:24;1.17;;;1.00;;
11735;SDS011;5924;51.398;7.088;2024-03-02T05:17:50;0.97;;;0.97;;
11735;SDS011;5924;51.398;7.088;2024-03-02T05:20:16;1.00;;;1.00;;
11735;SDS011;5924;51.398;7.088;2024-03-02T05:22:42;1.20;;;1.20;;
11735;SDS011;5924;51.398;7.088;2024-03-02T05:25:08;1.40;;;1.30;;
11735;SDS011;5924;51.398;7.088;2024-03-02T05:27:36;1.27;;;1.27;;
11735;SDS011;5924;51.398;7.088;2024-03-02T05:30:02;1.73;;;1.27;;
11735;SDS011;5924;51.398;7.088;2024-03-02T05:32:28;1.50;;;1.40;;
11735;SDS011;5924;51.398;7.088;2024-03-02T05:34:54;1.40;;;1.30;;
11735;SDS011;5924;51.398;7.088;2024-03-02T05:37:20;1.50;;;1.50;;
11735;SDS011;5924;51.398;7.088;2024-03-02T05:39:45;2.07;;;1.97;;
11735;SDS011;5924;51.398;7.088;2024-03-02T05:42:11;1.27;;;1.17;;
11735;SDS011;5924;51.398;7.088;2024-03-02T05:44:37;1.90;;;1.43;;
11735;SDS011;5924;51.398;7.088;2024-03-02T05:47:02;1.50;;;1.50;;
11735;SDS011;5924;51.398;7.088;2024-03-02T05:49:29;3.63;;;1.07;;
11735;SDS011;5924;51.398;7.088;2024-03-02T05:51:54;2.93;;;1.47;;
11735;SDS011;5924;51.398;7.088;2024-03-02T05:54:20;1.50;;;1.30;;
11735;SDS011;5924;51.398;7.088;2024-03-02T05:56:46;2.17;;;2.07;;
11735;SDS011;5924;51.398;7.088;2024-03-02T05:59:11;1.30;;;1.30;;
11735;SDS011;5924;51.398;7.088;2024-03-02T06:01:40;2.33;;;1.57;;
11735;SDS011;5924;51.398;7.088;2024-03-02T06:04:08;1.40;;;1.40;;
11735;SDS011;5924;51.398;7.088;2024-03-02T06:06:37;1.40;;;1.30;;
11735;SDS011;5924;51.398;7.088;2024-03-02T06:09:03;1.47;;;1.47;;
11735;SDS011;5924;51.398;7.088;2024-03-02T06:11:39;1.93;;;1.80;;
11735;SDS011;5924;51.398;7.088;2024-03-02T06:14:06;1.87;;;1.47;;
11735;SDS011;5924;51.398;7.088;2024-03-02T06:16:33;1.43;;;1.43;;
11735;SDS011;5924;51.398;7.088;2024-03-02T06:18:59;1.50;;;1.50;;
11735;SDS011;5924;51.398;7.088;2024-03-02T06:21:24;1.90;;;1.87;;
11735;SDS011;5924;51.398;7.088;2024-03-02T06:23:50;1.70;;;1.57;;
11735;SDS011;5924;51.398;7.088;2024-03-02T06:26:17;1.80;;;1.80;;
11735;SDS011;5924;51.398;7.088;2024-03-02T06:28:43;1.70;;;1.70;;
11735;SDS011;5924;51.398;7.088;2024-03-02T06:31:09;4.20;;;1.70;;
11735;SDS011;5924;51.398;7.088;2024-03-02T06:33:35;1.47;;;1.40;;
11735;SDS011;5924;51.398;7.088;2024-03-02T06:36:01;1.80;;;1.80;;
11735;SDS011;5924;51.398;7.088;2024-03-02T06:38:27;1.90;;;1.90;;
11735;SDS011;5924;51.398;7.088;2024-03-02T06:40:53;1.90;;;1.80;;
11735;SDS011;5924;51.398;7.088;2024-03-02T06:43:18;1.57;;;1.47;;
11735;SDS011;5924;51.398;7.088;2024-03-02T06:45:48;2.60;;;2.50;;
11735;SDS011;5924;51.398;7.088;2024-03-02T06:48:17;2.20;;;2.10;;
11735;SDS011;5924;51.398;7.088;2024-03-02T06:50:48;2.17;;;2.13;;
11735;SDS011;5924;51.398;7.088;2024-03-02T06:53:14;2.20;;;2.10;;
11735;SDS011;5924;51.398;7.088;2024-03-02T06:55:44;2.17;;;2.17;;
11735;SDS011;5924;51.398;7.088;2024-03-02T06:58:13;7.90;;;2.00;;
11735;SDS011;5924;51.398;7.088;2024-03-02T07:00:42;2.37;;;2.17;;
11735;SDS011;5924;51.398;7.088;2024-03-02T07:03:09;2.23;;;2.00;;
11735;SDS011;5924;51.398;7.088;2024-03-02T07:05:35;2.30;;;2.20;;
11735;SDS011;5924;51.398;7.088;2024-03-02T07:08:01;2.07;;;1.97;;
11735;SDS011;5924;51.398;7.088;2024-03-02T07:10:27;1.90;;;1.83;;
11735;SDS011;5924;51.398;7.088;2024-03-02T07:12:53;2.30;;;2.30;;
11735;SDS011;5924;51.398;7.088;2024-03-02T07:15:19;2.53;;;2.43;;
11735;SDS011;5924;51.398;7.088;2024-03-02T07:17:53;5.30;;;2.43;;
11735;SDS011;5924;51.398;7.088;2024-03-02T07:20:19;2.17;;;1.97;;
11735;SDS011;5924;51.398;7.088;2024-03-02T07:22:45;2.27;;;2.13;;
11735;SDS011;5924;51.398;7.088;2024-03-02T07:25:11;2.30;;;2.20;;
11735;SDS011;5924;51.398;7.088;2024-03-02T07:27:37;2.57;;;2.47;;
11735;SDS011;5924;51.398;7.088;2024-03-02T07:30:04;2.30;;;1.93;;
11735;SDS011;5924;51.398;7.088;2024-03-02T07:32:30;5.27;;;2.90;;
11735;SDS011;5924;51.398;7.088;2024-03-02T07:34:56;2.90;;;2.60;;
11735;SDS011;5924;51.398;7.088;2024-03-02T07:37:22;2.20;;;2.10;;
11735;SDS011;5924;51.398;7.088;2024-03-02T07:39:49;2.87;;;2.70;;
11735;SDS011;5924;51.398;7.088;2024-03-02T07:42:15;2.07;;;1.87;;
11735;SDS011;5924;51.398;7.088;2024-03-02T07:44:41;2.77;;;2.67;;
11735;SDS011;5924;51.398;7.088;2024-03-02T07:47:07;3.63;;;2.73;;
11735;SDS011;5924;51.398;7.088;2024-03-02T07:49:33;2.07;;;1.97;;
11735;SDS011;5924;51.398;7.088;2024-03-02T07:51:59;2.30;;;1.80;;
11735;SDS011;5924;51.398;7.088;2024-03-02T07:54:25;2.70;;;2.60;;
11735;SDS011;5924;51.398;7.088;2024-03-02T07:56:50;2.07;;;1.97;;
11735;SDS011;5924;51.398;7.088;2024-03-02T07:59:17;2.63;;;2.50;;
11735;SDS011;5924;51.398;7.088;2024-03-02T08:01:42;2.10;;;2.10;;
11735;SDS011;5924;51.398;7.088;2024-03-02T08:04:08;10.20;;;2.50;;
11735;SDS011;5924;51.398;7.088;2024-03-02T08:06:34;2.20;;;2.20;;
11735;SDS011;5924;51.398;7.088;2024-03-02T08:09:00;2.87;;;2.70;;
11735;SDS011;5924;51.398;7.088;2024-03-02T08:11:26;2.10;;;2.03;;
11735;SDS011;5924;51.398;7.088;2024-03-02T08:13:52;3.57;;;3.27;;
11735;SDS011;5924;51.398;7.088;2024-03-02T08:16:19;3.60;;;2.87;;
11735;SDS011;5924;51.398;7.088;2024-03-02T08:18:47;2.70;;;2.60;;
11735;SDS011;5924;51.398;7.088;2024-03-02T08:21:14;2.57;;;2.50;;
11735;SDS011;5924;51.398;7.088;2024-03-02T08:23:40;2.73;;;2.17;;
11735;SDS011;5924;51.398;7.088;2024-03-02T08:26:07;2.50;;;2.30;;
11735;SDS011;5924;51.398;7.088;2024-03-02T08:28:34;2.57;;;2.47;;
11735;SDS011;5924;51.398;7.088;2024-03-02T08:30:59;5.93;;;3.17;;
11735;SDS011;5924;51.398;7.088;2024-03-02T08:33:25;8.97;;;3.53;;
11735;SDS011;5924;51.398;7.088;2024-03-02T08:35:51;4.43;;;3.77;;
11735;SDS011;5924;51.398;7.088;2024-03-02T08:38:17;3.17;;;2.97;;
11735;SDS011;5924;51.398;7.088;2024-03-02T08:40:42;3.27;;;1.60;;
11735;SDS011;5924;51.398;7.088;2024-03-02T08:43:09;1.97;;;1.70;;
11735;SDS011;5924;51.398;7.088;2024-03-02T08:45:35;1.90;;;1.80;;
11735;SDS011;5924;51.398;7.088;2024-03-02T08:48:00;1.93;;;1.87;;
11735;SDS011;5924;51.398;7.088;2024-03-02T08:50:26;1.97;;;1.87;;
11735;SDS011;5924;51.398;7.088;2024-03-02T08:52:52;1.90;;;1.80;;
11735;SDS011;5924;51.398;7.088;2024-03-02T08:55:17;5.40;;;2.23;;
11735;SDS011;5924;51.398;7.088;2024-03-02T08:57:43;2.97;;;1.90;;
11735;SDS011;5924;51.398;7.088;2024-03-02T09:00:09;2.20;;;2.10;;
11735;SDS011;5924;51.398;7.088;2024-03-02T09:02:35;1.87;;;1.73;;
11735;SDS011;5924;51.398;7.088;2024-03-02T09:05:01;1.70;;;1.60;;
11735;SDS011;5924;51.398;7.088;2024-03-02T09:07:27;2.10;;;1.30;;
11735;SDS011;5924;51.398;7.088;2024-03-02T09:09:53;1.40;;;1.40;;
11735;SDS011;5924;51.398;7.088;2024-03-02T09:12:19;1.53;;;1.17;;
11735;SDS011;5924;51.398;7.088;2024-03-02T09:14:45;1.10;;;1.10;;
11735;SDS011;5924;51.398;7.088;2024-03-02T09:17:12;1.70;;;1.60;;
11735;SDS011;5924;51.398;7.088;2024-03-02T09:19:39;1.47;;;1.33;;
11735;SDS011;5924;51.398;7.088;2024-03-02T09:22:04;3.53;;;1.90;;
11735;SDS011;5924;51.398;7.088;2024-03-02T09:24:31;1.73;;;1.30;;
11735;SDS011;5924;51.398;7.088;2024-03-02T09:26:58;1.30;;;1.30;;
11735;SDS011;5924;51.398;7.088;2024-03-02T09:29:24;1.10;;;1.10;;
11735;SDS011;5924;51.398;7.088;2024-03-02T09:31:49;1.30;;;1.20;;
11735;SDS011;5924;51.398;7.088;2024-03-02T09:34:15;2.20;;;2.10;;
11735;SDS011;5924;51.398;7.088;2024-03-02T09:36:41;2.30;;;1.90;;
11735;SDS011;5924;51.398;7.088;2024-03-02T09:39:07;1.00;;;1.00;;
11735;SDS011;5924;51.398;7.088;2024-03-02T09:41:37;2.40;;;1.73;;
11735;SDS011;5924;51.398;7.088;2024-03-02T09:44:03;1.10;;;1.10;;
11735;SDS011;5924;51.398;7.088;2024-03-02T09:46:31;1.73;;;1.37;;
11735;SDS011;5924;51.398;7.088;2024-03-02T09:48:56;1.03;;;0.97;;
11735;SDS011;5924;51.398;7.088;2024-03-02T09:51:22;1.20;;;1.20;;
11735;SDS011;5924;51.398;7.088;2024-03-02T09:53:48;1.07;;;1.07;;
11735;SDS011;5924;51.398;7.088;2024-03-02T09:56:15;1.13;;;1.13;;
11735;SDS011;5924;51.398;7.088;2024-03-02T09:58:41;1.20;;;1.10;;
11735;SDS011;5924;51.398;7.088;2024-03-02T10:01:07;1.30;;;1.20;;
11735;SDS011;5924;51.398;7.088;2024-03-02T10:03:35;2.20;;;1.17;;
11735;SDS011;5924;51.398;7.088;2024-03-02T10:06:20;1.53;;;1.53;;
11735;SDS011;5924;51.398;7.088;2024-03-02T10:08:51;1.90;;;1.80;;
11735;SDS011;5924;51.398;7.088;2024-03-02T10:11:33;2.20;;;1.30;;
11735;SDS011;5924;51.398;7.088;2024-03-02T10:16:37;1.03;;;1.03;;
11735;SDS011;5924;51.398;7.088;2024-03-02T10:19:20;2.20;;;1.90;;
11735;SDS011;5924;51.398;7.088;2024-03-02T10:21:47;2.97;;;1.20;;
11735;SDS011;5924;51.398;7.088;2024-03-02T10:24:17;0.93;;;0.93;;
11735;SDS011;5924;51.398;7.088;2024-03-02T10:26:44;3.27;;;1.23;;
11735;SDS011;5924;51.398;7.088;2024-03-02T10:29:10;1.03;;;1.03;;
11735;SDS011;5924;51.398;7.088;2024-03-02T10:31:37;0.80;;;0.80;;
11735;SDS011;5924;51.398;7.088;2024-03-02T10:34:04;1.00;;;1.00;;
11735;SDS011;5924;51.398;7.088;2024-03-02T10:36:30;1.63;;;1.10;;
11735;SDS011;5924;51.398;7.088;2024-03-02T10:38:56;1.27;;;1.13;;
11735;SDS011;5924;51.398;7.088;2024-03-02T10:41:24;1.10;;;1.03;;
11735;SDS011;5924;51.398;7.088;2024-03-02T10:43:54;9.30;;;1.23;;
11735;SDS011;5924;51.398;7.088;2024-03-02T10:46:31;1.10;;;1.10;;
11735;SDS011;5924;51.398;7.088;2024-03-02T10:48:58;1.80;;;1.17;;
11735;SDS011;5924;51.398;7.088;2024-03-02T10:51:25;0.90;;;0.90;;
11735;SDS011;5924;51.398;7.088;2024-03-02T10:53:53;1.53;;;0.90;;
11735;SDS011;5924;51.398;7.088;2024-03-02T10:59:31;1.00;;;1.00;;
11735;SDS011;5924;51.398;7.088;2024-03-02T11:02:04;1.20;;;1.20;;
11735;SDS011;5924;51.398;7.088;2024-03-02T11:04:33;0.80;;;0.80;;
11735;SDS011;5924;51.398;7.088;2024-03-02T11:07:02;1.90;;;0.80;;
11735;SDS011;5924;51.398;7.088;2024-03-02T11:09:36;1.40;;;1.40;;
11735;SDS011;5924;51.398;7.088;2024-03-02T11:15:13;5.13;;;1.00;;
11735;SDS011;5924;51.398;7.088;2024-03-02T11:17:46;1.70;;;0.90;;
11735;SDS011;5924;51.398;7.088;2024-03-02T11:20:12;0.87;;;0.87;;
11735;SDS011;5924;51.398;7.088;2024-03-02T11:22:40;0.77;;;0.77;;
11735;SDS011;5924;51.398;7.088;2024-03-02T11:25:06;3.40;;;1.10;;
11735;SDS011;5924;51.398;7.088;2024-03-02T11:35:27;0.70;;;0.70;;
11735;SDS011;5924;51.398;7.088;2024-03-02T11:37:55;0.63;;;0.63;;
11735;SDS011;5924;51.398;7.088;2024-03-02T11:40:26;2.60;;;1.20;;
11735;SDS011;5924;51.398;7.088;2024-03-02T11:42:53;2.20;;;1.17;;
11735;SDS011;5924;51.398;7.088;2024-03-02T11:45:22;0.90;;;0.90;;
11735;SDS011;5924;51.398;7.088;2024-03-02T11:47:53;1.23;;;1.23;;
11735;SDS011;5924;51.398;7.088;2024-03-02T11:50:29;1.20;;;1.20;;
11735;SDS011;5924;51.398;7.088;2024-03-02T11:52:56;1.63;;;0.90;;
11735;SDS011;5924;51.398;7.088;2024-03-02T11:55:23;4.00;;;1.00;;
11735;SDS011;5924;51.398;7.088;2024-03-02T11:57:50;0.83;;;0.67;;
11735;SDS011;5924;51.398;7.088;2024-03-02T12:00:18;2.97;;;0.90;;
11735;SDS011;5924;51.398;7.088;2024-03-02T12:02:45;0.90;;;0.90;;
11735;SDS011;5924;51.398;7.088;2024-03-02T12:05:14;2.57;;;1.00;;
11735;SDS011;5924;51.398;7.088;2024-03-02T12:07:41;1.00;;;1.00;;
11735;SDS011;5924;51.398;7.088;2024-03-02T12:10:08;2.17;;;0.90;;
11735;SDS011;5924;51.398;7.088;2024-03-02T12:12:34;1.57;;;0.90;;
11735;SDS011;5924;51.398;7.088;2024-03-02T12:15:00;1.40;;;1.40;;
11735;SDS011;5924;51.398;7.088;2024-03-02T12:17:28;1.00;;;1.00;;
11735;SDS011;5924;51.398;7.088;2024-03-02T12:19:54;1.07;;;1.00;;
11735;SDS011;5924;51.398;7.088;2024-03-02T12:22:20;1.13;;;0.90;;
11735;SDS011;5924;51.398;7.088;2024-03-02T12:24:46;2.10;;;1.00;;
11735;SDS011;5924;51.398;7.088;2024-03-02T12:27:12;1.60;;;1.20;;
11735;SDS011;5924;51.398;7.088;2024-03-02T12:29:40;0.90;;;0.90;;
11735;SDS011;5924;51.398;7.088;2024-03-02T12:32:06;1.00;;;1.00;;
11735;SDS011;5924;51.398;7.088;2024-03-02T12:34:32;1.43;;;0.63;;
11735;SDS011;5924;51.398;7.088;2024-03-02T12:36:58;1.10;;;1.03;;
11735;SDS011;5924;51.398;7.088;2024-03-02T12:39:24;5.50;;;0.97;;
11735;SDS011;5924;51.398;7.088;2024-03-02T12:41:50;1.00;;;1.00;;
11735;SDS011;5924;51.398;7.088;2024-03-02T12:44:16;4.13;;;0.97;;
11735;SDS011;5924;51.398;7.088;2024-03-02T12:46:43;0.70;;;0.70;;
11735;SDS011;5924;51.398;7.088;2024-03-02T12:49:10;1.03;;;0.63;;
11735;SDS011;5924;51.398;7.088;2024-03-02T12:51:43;0.77;;;0.77;;
11735;SDS011;5924;51.398;7.088;2024-03-02T12:54:12;0.83;;;0.83;;
11735;SDS011;5924;51.398;7.088;2024-03-02T12:56:37;0.77;;;0.70;;
11735;SDS011;5924;51.398;7.088;2024-03-02T12:59:04;0.70;;;0.70;;
11735;SDS011;5924;51.398;7.088;2024-03-02T13:01:30;0.80;;;0.80;;
11735;SDS011;5924;51.398;7.088;2024-03-02T13:03:57;0.53;;;0.53;;
11735;SDS011;5924;51.398;7.088;2024-03-02T13:06:28;0.80;;;0.80;;
11735;SDS011;5924;51.398;7.088;2024-03-02T13:08:54;0.87;;;0.87;;
11735;SDS011;5924;51.398;7.088;2024-03-02T13:11:21;0.60;;;0.60;;
11735;SDS011;5924;51.398;7.088;2024-03-02T13:13:48;1.10;;;0.73;;
11735;SDS011;5924;51.398;7.088;2024-03-02T13:16:14;2.30;;;0.90;;
11735;SDS011;5924;51.398;7.088;2024-03-02T13:18:41;0.77;;;0.77;;
11735;SDS011;5924;51.398;7.088;2024-03-02T13:21:07;1.00;;;0.90;;
11735;SDS011;5924;51.398;7.088;2024-03-02T13:23:33;0.80;;;0.80;;
11735;SDS011;5924;51.398;7.088;2024-03-02T13:25:59;0.80;;;0.80;;
11735;SDS011;5924;51.398;7.088;2024-03-02T13:28:25;1.10;;;1.00;;
11735;SDS011;5924;51.398;7.088;2024-03-02T13:30:51;0.60;;;0.60;;
11735;SDS011;5924;51.398;7.088;2024-03-02T13:33:17;0.70;;;0.70;;
11735;SDS011;5924;51.398;7.088;2024-03-02T13:35:50;0.70;;;0.70;;
11735;SDS011;5924;51.398;7.088;2024-03-02T13:38:17;1.00;;;0.53;;
11735;SDS011;5924;51.398;7.088;2024-03-02T13:40:46;1.13;;;0.97;;
11735;SDS011;5924;51.398;7.088;2024-03-02T13:43:16;4.70;;;0.83;;
11735;SDS011;5924;51.398;7.088;2024-03-02T13:45:43;0.47;;;0.47;;
11735;SDS011;5924;51.398;7.088;2024-03-02T13:48:09;0.90;;;0.90;;
11735;SDS011;5924;51.398;7.088;2024-03-02T13:50:34;0.87;;;0.70;;
11735;SDS011;5924;51.398;7.088;2024-03-02T13:53:00;0.63;;;0.63;;
11735;SDS011;5924;51.398;7.088;2024-03-02T13:55:26;0.60;;;0.60;;
11735;SDS011;5924;51.398;7.088;2024-03-02T13:57:51;0.70;;;0.70;;
11735;SDS011;5924;51.398;7.088;2024-03-02T14:00:17;0.43;;;0.43;;
11735;SDS011;5924;51.398;7.088;2024-03-02T14:02:43;0.70;;;0.70;;
11735;SDS011;5924;51.398;7.088;2024-03-02T14:05:11;0.50;;;0.50;;
11735;SDS011;5924;51.398;7.088;2024-03-02T14:07:37;0.73;;;0.73;;
11735;SDS011;5924;51.398;7.088;2024-03-02T14:10:03;0.60;;;0.60;;
11735;SDS011;5924;51.398;7.088;2024-03-02T14:12:30;0.60;;;0.60;;
11735;SDS011;5924;51.398;7.088;2024-03-02T14:14:55;0.50;;;0.50;;
11735;SDS011;5924;51.398;7.088;2024-03-02T14:17:23;0.70;;;0.70;;
11735;SDS011;5924;51.398;7.088;2024-03-02T14:19:51;1.43;;;0.60;;
11735;SDS011;5924;51.398;7.088;2024-03-02T14:22:18;1.07;;;0.57;;
11735;SDS011;5924;51.398;7.088;2024-03-02T14:24:44;0.60;;;0.60;;
11735;SDS011;5924;51.398;7.088;2024-03-02T14:27:11;0.50;;;0.50;;
11735;SDS011;5924;51.398;7.088;2024-03-02T14:29:42;0.60;;;0.60;;
11735;SDS011;5924;51.398;7.088;2024-03-02T14:32:08;3.40;;;0.80;;
11735;SDS011;5924;51.398;7.088;2024-03-02T14:34:34;0.70;;;0.70;;
11735;SDS011;5924;51.398;7.088;2024-03-02T14:36:59;0.60;;;0.60;;
11735;SDS011;5924;51.398;7.088;2024-03-02T14:39:25;0.80;;;0.80;;
11735;SDS011;5924;51.398;7.088;2024-03-02T14:41:51;0.60;;;0.60;;
11735;SDS011;5924;51.398;7.088;2024-03-02T14:44:17;1.37;;;0.77;;
11735;SDS011;5924;51.398;7.088;2024-03-02T14:46:43;0.50;;;0.50;;
11735;SDS011;5924;51.398;7.088;2024-03-02T14:49:12;0.50;;;0.50;;
11735;SDS011;5924;51.398;7.088;2024-03-02T14:51:38;0.77;;;0.77;;
11735;SDS011;5924;51.398;7.088;2024-03-02T14:54:04;0.80;;;0.80;;
11735;SDS011;5924;51.398;7.088;2024-03-02T14:56:30;1.07;;;0.60;;
11735;SDS011;5924;51.398;7.088;2024-03-02T14:58:55;0.60;;;0.53;;
11735;SDS011;5924;51.398;7.088;2024-03-02T15:01:21;0.50;;;0.50;;
11735;SDS011;5924;51.398;7.088;2024-03-02T15:03:51;0.80;;;0.80;;
11735;SDS011;5924;51.398;7.088;2024-03-02T15:06:17;0.60;;;0.60;;
11735;SDS011;5924;51.398;7.088;2024-03-02T15:08:43;1.23;;;0.73;;
11735;SDS011;5924;51.398;7.088;2024-03-02T15:11:11;0.90;;;0.90;;
11735;SDS011;5924;51.398;7.088;2024-03-02T15:13:37;1.00;;;0.97;;
11735;SDS011;5924;51.398;7.088;2024-03-02T15:16:03;0.90;;;0.90;;